Time;durP1;ratioP1;P1;durP2;ratioP2;P2;SDS_P1;SDS_P2;PMS_P1;PMS_P2;Temp;Humidity;BMP_temperature;BMP_pressure;BME280_temperature;BME280_humidity;BME280_pressure;Samples;Min_cycle;Max_cycle;Signal;HPM_P1;HPM_P2
2023/02/15 00:00:12;;;;;;;177.70;127.00;;;;;;;0.76;72.30;102187.77;111399;1254;22272;-79
2023/02/15 00:03:00;;;;;;;174.40;125.00;;;;;;;0.71;72.45;102187.62;111530;1253;22015;-78
2023/02/15 00:05:30;;;;;;;165.30;124.50;;;;;;;0.68;72.41;102188.23;111218;1253;23017;-79
2023/02/15 00:07:58;;;;;;;182.80;132.10;;;;;;;0.67;72.33;102189.71;111155;1254;21995;-79
2023/02/15 00:10:26;;;;;;;173.40;128.40;;;;;;;0.64;72.24;102185.16;111382;1254;22002;-80
2023/02/15 00:12:54;;;;;;;178.00;127.50;;;;;;;0.59;72.11;102187.08;111244;1254;21962;-81
2023/02/15 00:15:21;;;;;;;169.00;123.90;;;;;;;0.56;72.21;102185.61;111234;1255;23867;-81
2023/02/15 00:17:49;;;;;;;172.50;125.90;;;;;;;0.55;72.29;102184.70;111085;1255;22358;-79
2023/02/15 00:20:18;;;;;;;167.80;122.30;;;;;;;0.53;72.32;102184.66;111420;1254;21985;-81
2023/02/15 00:22:46;;;;;;;179.90;128.30;;;;;;;0.50;72.28;102184.21;111374;1252;23044;-81
2023/02/15 00:25:13;;;;;;;173.70;127.80;;;;;;;0.48;72.37;102180.88;111328;1254;23700;-81
2023/02/15 00:27:41;;;;;;;185.60;128.10;;;;;;;0.46;72.45;102173.96;111496;1252;22006;-79
2023/02/15 00:30:09;;;;;;;181.80;131.10;;;;;;;0.44;72.32;102175.63;111415;1254;23184;-80
2023/02/15 00:32:37;;;;;;;170.00;131.10;;;;;;;0.42;72.42;102171.61;111111;1255;21961;-80
2023/02/15 00:35:06;;;;;;;183.00;134.80;;;;;;;0.39;72.36;102172.55;111345;1253;23011;-81
2023/02/15 00:37:35;;;;;;;173.30;128.10;;;;;;;0.37;72.43;102168.69;110850;1260;22976;-80
2023/02/15 00:40:05;;;;;;;172.80;128.90;;;;;;;0.34;72.37;102166.73;110843;1260;22025;-79
2023/02/15 00:42:33;;;;;;;162.50;123.70;;;;;;;0.33;72.57;102163.27;110828;1260;21972;-80
2023/02/15 00:45:00;;;;;;;167.10;124.00;;;;;;;0.34;72.72;102159.52;110727;1260;24375;-80
2023/02/15 00:47:29;;;;;;;168.80;125.90;;;;;;;0.33;72.70;102160.55;110667;1260;25055;-80
2023/02/15 00:49:57;;;;;;;160.10;122.60;;;;;;;0.33;72.72;102162.59;110666;1260;23061;-80
2023/02/15 00:52:25;;;;;;;163.00;123.50;;;;;;;0.33;72.76;102162.78;110681;1260;23072;-79
2023/02/15 00:54:52;;;;;;;172.50;125.00;;;;;;;0.33;72.77;102157.27;110633;1255;21967;-81
2023/02/15 00:57:20;;;;;;;172.40;127.50;;;;;;;0.31;72.57;102151.89;111471;1254;22945;-81
2023/02/15 00:59:48;;;;;;;169.10;130.60;;;;;;;0.29;72.68;102154.73;111411;1254;22431;-80
2023/02/15 01:02:15;;;;;;;169.90;128.00;;;;;;;0.26;72.68;102154.28;111468;1255;21949;-79
2023/02/15 01:04:43;;;;;;;167.40;129.90;;;;;;;0.23;72.59;102151.29;111236;1254;22702;-79
2023/02/15 01:07:11;;;;;;;178.20;131.20;;;;;;;0.20;72.53;102150.34;111226;1241;21981;-79
2023/02/15 01:09:39;;;;;;;174.70;128.80;;;;;;;0.17;72.56;102147.32;111215;1255;22458;-80
2023/02/15 01:12:08;;;;;;;173.40;128.60;;;;;;;0.14;72.66;102146.90;111028;1251;22461;-79
2023/02/15 01:14:36;;;;;;;165.70;125.20;;;;;;;0.12;72.66;102146.83;111180;1254;21965;-80
2023/02/15 01:17:05;;;;;;;172.70;129.00;;;;;;;0.12;72.80;102145.78;111271;1253;24365;-80
2023/02/15 01:19:35;;;;;;;171.50;128.40;;;;;;;0.12;72.90;102141.18;111126;1254;22049;-81
2023/02/15 01:22:03;;;;;;;188.50;136.00;;;;;;;0.13;72.96;102141.54;111304;1254;21921;-80
2023/02/15 01:24:36;;;;;;;172.10;131.80;;;;;;;0.12;72.86;102137.08;111411;1254;22155;-78
2023/02/15 01:27:04;;;;;;;172.30;127.40;;;;;;;0.10;72.77;102134.05;111113;1253;21953;-80
2023/02/15 01:29:32;;;;;;;234.00;177.00;;;;;;;0.06;72.72;102138.05;111504;1254;21961;-80
2023/02/15 01:31:59;;;;;;;237.50;177.30;;;;;;;0.05;72.88;102138.20;111425;1254;21968;-80
2023/02/15 01:34:29;;;;;;;225.40;163.50;;;;;;;0.05;72.98;102133.38;111172;1254;21952;-78
2023/02/15 01:36:57;;;;;;;212.80;156.80;;;;;;;0.04;72.95;102133.17;111289;1254;23647;-79
2023/02/15 01:39:25;;;;;;;216.10;163.00;;;;;;;0.02;72.93;102133.30;111224;1254;21998;-78
2023/02/15 01:41:53;;;;;;;223.50;162.90;;;;;;;0.01;72.96;102130.67;111401;1253;22617;-79
2023/02/15 01:44:52;;;;;;;194.60;149.50;;;;;;;0.00;72.94;102129.81;111402;1254;22039;-78
2023/02/15 01:48:05;;;;;;;207.00;149.80;;;;;;;-0.04;72.83;102127.27;111458;1253;21993;-78
2023/02/15 01:50:44;;;;;;;215.60;150.70;;;;;;;-0.11;72.90;102126.18;110657;1261;21974;-80
2023/02/15 01:53:42;;;;;;;215.20;152.30;;;;;;;-0.14;72.98;102123.66;109766;1268;22078;-79
2023/02/15 01:56:33;;;;;;;200.80;145.90;;;;;;;-0.17;73.11;102117.40;109316;1274;22850;-79
2023/02/15 01:59:09;;;;;;;210.20;148.40;;;;;;;-0.21;73.00;102115.58;109221;1274;21984;-79
2023/02/15 02:01:37;;;;;;;201.70;148.30;;;;;;;-0.23;73.07;102114.33;109356;1274;21973;-80
2023/02/15 02:04:35;;;;;;;198.30;147.30;;;;;;;-0.23;73.08;102112.76;109102;1274;22102;-78
2023/02/15 02:07:05;;;;;;;211.80;151.30;;;;;;;-0.24;73.20;102109.13;109309;1274;23728;-80
2023/02/15 02:09:33;;;;;;;204.70;148.80;;;;;;;-0.26;73.09;102105.32;109193;1274;23637;-80
2023/02/15 02:12:01;;;;;;;197.50;145.70;;;;;;;-0.31;73.04;102104.27;109394;1267;23081;-79
2023/02/15 02:14:29;;;;;;;195.60;145.30;;;;;;;-0.32;73.27;102099.80;109667;1267;21981;-78
2023/02/15 02:17:22;;;;;;;191.40;141.40;;;;;;;-0.31;73.35;102099.83;110029;1267;23050;-79
2023/02/15 02:20:23;;;;;;;191.10;140.50;;;;;;;-0.33;73.29;102099.23;109936;1268;23826;-79
2023/02/15 02:23:41;;;;;;;193.90;142.20;;;;;;;-0.36;73.39;102092.64;110124;1269;22072;-79
2023/02/15 02:26:48;;;;;;;207.20;142.80;;;;;;;-0.38;73.52;102093.77;109682;1267;21977;-80
2023/02/15 02:30:04;;;;;;;196.60;138.60;;;;;;;-0.41;73.43;102095.36;109052;1276;23631;-80
2023/02/15 02:33:12;;;;;;;192.30;140.00;;;;;;;-0.44;73.52;102090.64;109339;1268;23050;-82
2023/02/15 02:36:02;;;;;;;197.90;141.80;;;;;;;-0.46;73.49;102087.84;109625;1273;23592;-80
2023/02/15 02:39:24;;;;;;;206.20;143.90;;;;;;;-0.47;73.46;102084.36;109643;1272;22005;-81
2023/02/15 02:42:11;;;;;;;201.70;142.00;;;;;;;-0.50;73.43;102081.53;108930;1278;22003;-81
2023/02/15 02:44:51;;;;;;;206.50;141.90;;;;;;;-0.50;73.56;102081.70;108909;1278;22166;-80
2023/02/15 02:47:36;;;;;;;205.20;146.40;;;;;;;-0.48;73.59;102079.55;108913;1267;23080;-81
2023/02/15 02:50:13;;;;;;;193.30;136.60;;;;;;;-0.48;73.66;102077.68;109079;1278;22335;-81
2023/02/15 02:52:53;;;;;;;191.30;137.30;;;;;;;-0.48;73.66;102076.48;108813;1278;22100;-82
2023/02/15 02:55:29;;;;;;;195.80;138.30;;;;;;;-0.49;73.61;102075.94;109232;1278;22002;-80
2023/02/15 02:58:21;;;;;;;199.80;139.50;;;;;;;-0.50;73.60;102075.57;108937;1278;22018;-82
2023/02/15 03:00:56;;;;;;;182.00;132.00;;;;;;;-0.51;73.69;102075.71;108895;1278;22019;-78
2023/02/15 03:03:45;;;;;;;181.00;134.00;;;;;;;-0.52;73.72;102077.17;108986;1272;22032;-80
2023/02/15 03:06:26;;;;;;;183.70;133.40;;;;;;;-0.57;73.67;102076.00;109245;1269;23738;-80
2023/02/15 03:09:15;;;;;;;189.00;136.10;;;;;;;-0.59;73.77;102077.28;109876;1267;24101;-80
2023/02/15 03:11:45;;;;;;;191.20;139.80;;;;;;;-0.62;73.73;102071.05;109762;1263;21983;-81
2023/02/15 03:14:17;;;;;;;208.70;152.30;;;;;;;-0.63;73.66;102070.13;110295;1262;23065;-80
2023/02/15 03:16:49;;;;;;;223.80;159.60;;;;;;;-0.63;73.66;102064.66;110389;1255;23012;-80
2023/02/15 03:19:30;;;;;;;205.80;152.20;;;;;;;-0.65;73.69;102062.70;111332;1254;21981;-80
2023/02/15 03:22:23;;;;;;;213.60;150.70;;;;;;;-0.68;73.63;102065.33;111221;1253;21975;-80
2023/02/15 03:25:05;;;;;;;207.80;148.10;;;;;;;-0.70;73.83;102063.88;111130;1254;21968;-79
2023/02/15 03:27:40;;;;;;;;;;;;;;;-0.70;73.90;102066.46;111441;1253;21952;-80
2023/02/15 03:30:13;;;;;;;191.40;138.10;;;;;;;-0.76;73.92;102066.92;111231;1253;21998;-79
2023/02/15 03:32:43;;;;;;;220.40;152.80;;;;;;;-0.76;73.98;102068.30;111160;1253;21970;-79
2023/02/15 03:35:11;;;;;;;200.70;141.20;;;;;;;-0.73;73.83;102071.65;111374;1253;21964;-79
2023/02/15 03:38:01;;;;;;;204.60;142.90;;;;;;;-0.68;74.05;102072.69;111177;1253;21958;-80
2023/02/15 03:43:59;;;;;;;195.90;140.70;;;;;;;-0.61;74.00;102073.64;111652;1253;22915;-79
2023/02/15 03:46:50;;;;;;;192.70;137.70;;;;;;;-0.59;73.99;102069.59;110793;1260;22042;-81
2023/02/15 03:49:56;;;;;;;203.20;141.50;;;;;;;-0.59;74.01;102066.35;110771;1262;22037;-83
2023/02/15 03:52:31;;;;;;;188.10;137.60;;;;;;;-0.58;74.10;102069.64;110695;1261;22102;-80
2023/02/15 03:54:58;;;;;;;197.60;143.80;;;;;;;-0.53;74.20;102069.11;110753;1261;21976;-80
2023/02/15 04:03:14;;;;;;;200.20;142.00;;;;;;;-0.41;74.38;102072.63;110890;1261;21958;-80
2023/02/15 04:05:44;;;;;;;204.30;148.40;;;;;;;-0.36;74.27;102069.88;110836;1261;22048;-81
2023/02/15 04:08:12;;;;;;;192.80;142.90;;;;;;;-0.36;74.19;102069.20;110818;1261;22024;-81
2023/02/15 04:10:53;;;;;;;190.70;143.60;;;;;;;-0.32;74.36;102067.27;110747;1262;21986;-81
2023/02/15 04:13:33;;;;;;;209.60;149.00;;;;;;;-0.25;74.44;102064.63;110690;1261;21968;-79
2023/02/15 04:16:04;;;;;;;270.70;179.60;;;;;;;-0.16;74.59;102059.94;110718;1261;21968;-80
2023/02/15 04:27:05;;;;;;;178.30;135.60;;;;;;;0.06;74.40;102051.95;111439;1252;23010;-80
2023/02/15 04:29:33;;;;;;;171.50;131.30;;;;;;;0.09;74.27;102049.30;111228;1253;21975;-80
2023/02/15 04:32:02;;;;;;;164.80;126.90;;;;;;;0.10;74.19;102045.38;110611;1260;21980;-81
2023/02/15 04:34:30;;;;;;;170.40;127.40;;;;;;;0.08;74.13;102046.16;110771;1260;21993;-81
2023/02/15 04:36:58;;;;;;;205.10;157.60;;;;;;;0.05;74.11;102044.88;110728;1260;22975;-81
2023/02/15 04:39:26;;;;;;;187.80;140.50;;;;;;;0.00;74.19;102045.25;110666;1260;22014;-81
2023/02/15 04:41:54;;;;;;;188.60;143.50;;;;;;;-0.01;74.12;102047.95;110784;1260;22022;-81
2023/02/15 04:44:21;;;;;;;209.60;150.80;;;;;;;-0.02;74.24;102047.40;110764;1259;21970;-82
2023/02/15 04:46:49;;;;;;;332.40;202.00;;;;;;;-0.03;74.22;102042.77;110739;1260;22241;-80
2023/02/15 04:49:17;;;;;;;278.10;180.90;;;;;;;-0.04;74.31;102042.75;110617;1255;22785;-81
2023/02/15 04:51:45;;;;;;;275.60;176.10;;;;;;;-0.04;74.29;102038.27;111120;1255;23149;-81
2023/02/15 04:54:13;;;;;;;263.70;174.00;;;;;;;-0.05;74.24;102035.50;111226;1241;21958;-79
2023/02/15 04:56:42;;;;;;;314.80;202.30;;;;;;;-0.05;74.35;102032.77;111146;1254;21972;-80
2023/02/15 04:59:12;;;;;;;366.60;262.00;;;;;;;-0.04;74.48;102030.74;111199;1253;22039;-80
2023/02/15 05:01:39;;;;;;;234.90;168.70;;;;;;;-0.03;74.52;102027.86;111265;1254;23715;-80
2023/02/15 05:04:07;;;;;;;171.70;130.50;;;;;;;-0.03;74.40;102028.91;111518;1251;21957;-80
2023/02/15 05:06:35;;;;;;;177.50;131.80;;;;;;;-0.06;74.30;102027.26;111202;1254;22046;-80
2023/02/15 05:09:03;;;;;;;174.30;132.80;;;;;;;-0.12;74.15;102027.73;111097;1254;23558;-80
2023/02/15 05:11:31;;;;;;;188.90;134.80;;;;;;;-0.16;74.33;102027.27;110940;1255;22977;-81
2023/02/15 05:13:59;;;;;;;182.30;138.70;;;;;;;-0.18;74.33;102026.52;111375;1255;22925;-81
2023/02/15 05:16:27;;;;;;;180.50;138.50;;;;;;;-0.19;74.41;102025.95;110926;1259;23205;-80
2023/02/15 05:18:56;;;;;;;169.80;129.50;;;;;;;-0.22;74.46;102020.39;110955;1259;21968;-81
2023/02/15 05:21:24;;;;;;;178.30;131.10;;;;;;;-0.26;74.50;102020.45;110663;1260;21968;-82
2023/02/15 05:23:52;;;;;;;172.40;125.10;;;;;;;-0.29;74.61;102017.95;110604;1260;23046;-81
2023/02/15 05:29:11;;;;;;;181.40;135.70;;;;;;;-0.23;74.80;102019.35;110988;1259;22029;-81
2023/02/15 05:31:39;;;;;;;158.00;119.70;;;;;;;-0.18;74.89;102016.27;111061;1259;21933;-81
2023/02/15 05:34:07;;;;;;;156.10;115.40;;;;;;;-0.13;74.95;102016.05;110931;1254;23656;-86
2023/02/15 05:36:35;;;;;;;129.00;98.70;;;;;;;-0.09;74.88;102018.43;111339;1254;21973;-79
2023/02/15 05:39:05;;;;;;;124.60;98.90;;;;;;;-0.03;75.13;102019.46;111316;1254;21999;-86
2023/02/15 05:41:33;;;;;;;124.40;95.60;;;;;;;0.07;75.16;102020.13;111428;1252;21960;-80
2023/02/15 05:44:01;;;;;;;157.10;127.90;;;;;;;0.12;74.93;102018.42;111485;1252;22033;-81
2023/02/15 05:46:29;;;;;;;138.00;112.70;;;;;;;0.20;75.13;102015.58;111422;1252;23819;-80
2023/02/15 05:48:57;;;;;;;123.70;98.50;;;;;;;0.29;75.09;102010.40;111414;1252;23713;-80
2023/02/15 05:51:25;;;;;;;140.80;105.70;;;;;;;0.37;75.15;102012.18;111672;1252;23580;-80
2023/02/15 05:53:53;;;;;;;143.20;104.30;;;;;;;0.42;74.96;102009.05;111213;1252;22710;-78
2023/02/15 05:56:21;;;;;;;148.40;115.00;;;;;;;0.47;74.93;102009.73;111489;1244;22000;-81
2023/02/15 05:58:49;;;;;;;133.70;101.10;;;;;;;0.52;74.95;102007.14;111411;1252;21971;-79
2023/02/15 06:01:21;;;;;;;123.90;98.90;;;;;;;0.54;74.79;102008.05;111521;1252;23084;-80
2023/02/15 06:03:49;;;;;;;137.60;107.50;;;;;;;0.54;74.88;102008.08;111040;1258;21975;-81
2023/02/15 06:06:17;;;;;;;118.60;96.90;;;;;;;0.58;74.87;102007.48;110939;1258;21993;-82
2023/02/15 06:08:46;;;;;;;122.50;93.50;;;;;;;0.61;74.84;102011.16;110935;1259;22814;-81
2023/02/15 06:11:14;;;;;;;106.60;87.80;;;;;;;0.65;74.91;102014.20;111229;1257;22589;-81
2023/02/15 06:13:42;;;;;;;114.30;88.00;;;;;;;0.69;75.01;102014.33;111178;1258;22114;-80
2023/02/15 06:16:10;;;;;;;111.30;93.00;;;;;;;0.75;74.92;102012.10;111008;1258;21924;-79
2023/02/15 06:18:38;;;;;;;121.30;100.60;;;;;;;0.83;75.18;102013.33;111062;1258;21960;-79
2023/02/15 06:21:05;;;;;;;93.70;78.00;;;;;;;0.93;75.21;102019.99;111005;1252;21976;-82
2023/02/15 06:23:33;;;;;;;95.40;80.80;;;;;;;1.00;75.07;102024.65;111674;1253;21952;-79
2023/02/15 06:26:01;;;;;;;95.10;78.50;;;;;;;1.04;74.88;102028.00;111428;1253;21974;-78
2023/02/15 06:28:29;;;;;;;89.20;74.80;;;;;;;1.06;74.95;102031.50;111809;1253;21972;-79
2023/02/15 06:30:57;;;;;;;86.70;73.00;;;;;;;1.09;74.89;102028.48;111226;1252;21995;-79
2023/02/15 06:33:25;;;;;;;92.60;77.80;;;;;;;1.12;74.79;102030.13;111473;1252;23766;-79
2023/02/15 06:35:53;;;;;;;104.70;83.30;;;;;;;1.18;74.86;102031.82;111350;1253;22916;-79
2023/02/15 06:38:21;;;;;;;99.40;80.60;;;;;;;1.25;74.96;102030.32;110553;1260;24330;-79
2023/02/15 06:40:49;;;;;;;77.60;69.10;;;;;;;1.32;74.95;102025.71;110773;1260;22144;-81
2023/02/15 06:43:17;;;;;;;76.70;66.80;;;;;;;1.37;74.87;102024.45;110804;1260;23691;-79
2023/02/15 06:45:45;;;;;;;72.90;62.50;;;;;;;1.37;74.91;102023.27;110727;1260;24065;-79
2023/02/15 06:48:13;;;;;;;70.70;62.90;;;;;;;1.39;74.91;102026.04;110636;1248;23145;-82
2023/02/15 06:50:41;;;;;;;69.70;61.50;;;;;;;1.42;74.91;102024.06;110823;1260;22087;-80
2023/02/15 06:53:09;;;;;;;80.50;66.30;;;;;;;1.45;74.95;102020.89;110687;1260;22446;-80
2023/02/15 06:55:37;;;;;;;90.40;72.50;;;;;;;1.48;74.87;102018.73;110333;1257;22809;-78
2023/02/15 06:58:05;;;;;;;65.90;58.10;;;;;;;1.50;74.93;102018.45;111099;1257;21956;-79
2023/02/15 07:00:33;;;;;;;65.30;58.20;;;;;;;1.54;74.88;102019.76;110867;1257;22023;-79
2023/02/15 07:03:02;;;;;;;70.30;61.10;;;;;;;1.56;74.87;102017.07;111100;1257;23803;-79
2023/02/15 07:05:34;;;;;;;75.50;60.50;;;;;;;1.56;74.86;102011.23;111113;1257;23695;-80
2023/02/15 07:08:02;;;;;;;67.30;60.00;;;;;;;1.58;74.91;102013.00;111187;1257;22952;-80
2023/02/15 07:10:30;;;;;;;72.60;60.40;;;;;;;1.59;74.86;102010.80;111073;1257;22029;-80
2023/02/15 07:12:58;;;;;;;66.40;59.00;;;;;;;1.61;74.85;102006.54;111154;1252;23706;-80
2023/02/15 07:15:25;;;;;;;69.40;60.60;;;;;;;1.64;74.79;102005.24;111436;1252;22004;-80
2023/02/15 07:17:53;;;;;;;57.30;50.10;;;;;;;1.66;74.92;102004.26;111235;1240;21995;-79
2023/02/15 07:20:23;;;;;;;59.60;53.10;;;;;;;1.68;74.94;101996.60;111203;1253;21964;-80
2023/02/15 07:22:51;;;;;;;58.80;52.60;;;;;;;1.71;74.90;101992.20;111449;1253;21956;-79
2023/02/15 07:25:19;;;;;;;72.60;64.60;;;;;;;1.74;75.09;101987.30;111367;1253;21947;-80
2023/02/15 07:27:48;;;;;;;63.90;57.30;;;;;;;1.78;75.06;101992.39;111359;1253;23612;-80
2023/02/15 07:30:17;;;;;;;60.30;54.00;;;;;;;1.83;74.96;101987.70;111502;1253;21935;-79
2023/02/15 07:36:01;;;;;;;56.80;51.00;;;;;;;1.93;74.89;101987.62;111100;1256;22406;-80
2023/02/15 07:38:36;;;;;;;52.70;47.40;;;;;;;1.97;74.86;101984.76;110746;1260;23695;-81
2023/02/15 07:41:11;;;;;;;52.10;46.40;;;;;;;2.02;74.82;101989.70;110844;1260;23074;-80
2023/02/15 07:43:42;;;;;;;46.50;41.70;;;;;;;2.05;74.80;101986.33;110730;1260;21976;-80
2023/02/15 07:46:16;;;;;;;50.10;44.90;;;;;;;2.07;74.72;101983.46;110945;1260;21962;-81
2023/02/15 07:48:45;;;;;;;52.00;46.90;;;;;;;2.12;74.79;101980.14;110905;1260;21978;-80
2023/02/15 07:51:14;;;;;;;50.40;45.40;;;;;;;2.20;74.79;101981.01;110536;1265;23034;-81
2023/02/15 07:53:42;;;;;;;44.90;40.80;;;;;;;2.28;74.62;101978.96;110007;1265;22005;-80
2023/02/15 07:56:13;;;;;;;48.40;43.60;;;;;;;2.31;74.49;101977.99;110365;1265;23043;-80
2023/02/15 07:58:50;;;;;;;47.50;42.70;;;;;;;2.34;74.46;101980.28;110410;1265;21990;-80
2023/02/15 08:01:23;;;;;;;45.30;40.70;;;;;;;2.38;74.40;101977.79;110104;1265;22083;-80
2023/02/15 08:03:50;;;;;;;;;;;;;;;2.41;74.35;101976.33;110182;1265;21963;-80
2023/02/15 08:06:20;;;;;;;48.70;43.70;;;;;;;2.36;74.36;101973.28;110328;1258;21984;-81
2023/02/15 08:08:49;;;;;;;48.50;43.80;;;;;;;2.39;74.35;101970.95;110864;1258;22017;-80
2023/02/15 08:11:26;;;;;;;47.20;42.20;;;;;;;2.46;74.40;101968.52;111004;1258;22851;-80
2023/02/15 08:14:24;;;;;;;55.30;49.50;;;;;;;2.51;74.22;101962.27;111025;1258;22020;-81
2023/02/15 08:17:02;;;;;;;52.90;47.70;;;;;;;2.54;74.06;101958.71;110568;1260;22005;-81
2023/02/15 08:19:32;;;;;;;46.90;42.40;;;;;;;2.56;73.81;101953.77;110629;1261;22015;-80
2023/02/15 08:22:22;;;;;;;46.30;41.90;;;;;;;2.54;73.65;101945.15;110756;1260;23039;-81
2023/02/15 08:24:50;;;;;;;49.70;44.70;;;;;;;2.51;73.56;101946.13;110224;1268;22000;-80
2023/02/15 08:27:18;;;;;;;48.90;44.00;;;;;;;2.53;73.64;101948.39;109605;1268;22022;-78
2023/02/15 08:29:46;;;;;;;51.40;46.20;;;;;;;2.55;73.56;101951.70;109434;1272;22968;-79
2023/02/15 08:32:14;;;;;;;48.60;43.70;;;;;;;2.58;73.48;101951.77;109501;1272;22944;-78
2023/02/15 08:34:42;;;;;;;49.60;44.80;;;;;;;2.58;73.27;101949.52;109599;1272;22486;-75
2023/02/15 08:37:10;;;;;;;49.60;44.70;;;;;;;2.61;73.34;101943.23;109369;1272;22003;-79
2023/02/15 08:39:38;;;;;;;53.40;48.30;;;;;;;2.66;73.54;101944.20;109481;1272;21986;-81
2023/02/15 08:42:05;;;;;;;55.40;50.10;;;;;;;2.73;73.42;101944.67;109535;1272;22006;-80
2023/02/15 08:44:33;;;;;;;65.90;54.20;;;;;;;2.79;73.37;101946.34;109012;1276;22010;-79
2023/02/15 08:47:03;;;;;;;56.50;50.70;;;;;;;2.85;73.19;101944.74;109169;1275;22040;-82
2023/02/15 08:49:31;;;;;;;49.80;44.80;;;;;;;2.92;73.34;101942.98;109315;1275;21982;-79
2023/02/15 08:51:59;;;;;;;50.60;45.40;;;;;;;3.00;73.08;101942.61;109077;1275;22559;-78
2023/02/15 08:54:27;;;;;;;49.20;44.20;;;;;;;2.99;72.69;101944.31;109733;1267;21994;-78
2023/02/15 08:56:55;;;;;;;57.90;52.00;;;;;;;3.00;72.85;101942.77;109367;1272;23644;-79
2023/02/15 08:59:23;;;;;;;49.90;45.20;;;;;;;3.08;72.86;101939.84;109499;1272;21991;-78
2023/02/15 09:01:53;;;;;;;48.20;43.80;;;;;;;3.15;72.76;101936.02;109585;1260;21969;-78
2023/02/15 09:04:22;;;;;;;49.70;44.70;;;;;;;3.19;72.52;101932.30;110909;1258;21971;-78
2023/02/15 09:06:51;;;;;;;47.40;42.70;;;;;;;3.21;72.10;101936.45;110793;1259;23886;-77
2023/02/15 09:09:20;;;;;;;47.20;42.50;;;;;;;3.15;71.88;101932.40;110564;1259;22983;-78
2023/02/15 09:11:51;;;;;;;47.90;42.90;;;;;;;3.10;71.60;101927.84;110863;1258;23061;-77
2023/02/15 09:14:27;;;;;;;49.90;45.00;;;;;;;3.07;71.62;101924.86;110676;1253;21963;-77
2023/02/15 09:16:55;;;;;;;51.30;46.30;;;;;;;3.03;71.60;101918.42;111399;1253;21964;-78
2023/02/15 09:19:23;;;;;;;48.30;43.70;;;;;;;3.06;71.70;101921.23;111029;1253;23625;-77
2023/02/15 09:21:51;;;;;;;45.00;40.40;;;;;;;3.16;71.96;101918.30;111111;1253;21948;-77
2023/02/15 09:24:19;;;;;;;49.80;44.50;;;;;;;3.22;71.53;101912.02;111642;1243;23026;-77
2023/02/15 09:26:48;;;;;;;54.60;49.20;;;;;;;3.19;71.16;101909.92;111551;1252;22002;-76
2023/02/15 09:29:18;;;;;;;52.60;47.30;;;;;;;3.22;71.48;101906.38;111032;1252;21953;-81
2023/02/15 09:31:49;;;;;;;53.90;48.50;;;;;;;3.29;71.49;101908.05;111577;1252;24332;-80
2023/02/15 09:34:21;;;;;;;49.30;44.20;;;;;;;3.36;71.23;101906.77;111617;1252;21955;-80
2023/02/15 09:36:50;;;;;;;49.20;44.50;;;;;;;3.44;71.17;101905.71;111518;1252;24353;-80
2023/02/15 09:39:25;;;;;;;56.40;50.80;;;;;;;3.54;71.14;101906.72;111512;1252;21961;-80
2023/02/15 09:41:55;;;;;;;63.40;56.70;;;;;;;3.66;71.24;101905.20;111333;1253;24371;-79
2023/02/15 09:45:03;;;;;;;58.90;53.00;;;;;;;3.80;71.27;101905.06;111589;1252;21953;-81
2023/02/15 09:47:49;;;;;;;61.10;54.60;;;;;;;3.92;70.97;101903.00;111689;1252;21965;-78
2023/02/15 09:50:29;;;;;;;62.00;54.10;;;;;;;4.04;71.06;101897.66;111581;1252;22018;-79
2023/02/15 09:53:32;;;;;;;57.80;51.50;;;;;;;4.19;70.79;101894.42;111695;1252;22026;-81
2023/02/15 09:56:24;;;;;;;55.30;50.00;;;;;;;4.25;70.04;101888.29;111101;1251;21963;-82
2023/02/15 09:59:05;;;;;;;58.30;52.20;;;;;;;4.21;69.54;101887.39;109422;1250;1762256;-83
2023/02/15 10:01:42;;;;;;;65.20;58.10;;;;;;;4.12;69.29;101885.88;110975;1260;21986;-83
2023/02/15 10:04:38;;;;;;;94.70;78.60;;;;;;;4.09;69.25;101883.08;110923;1260;22903;-83
2023/02/15 10:07:26;;;;;;;59.50;53.20;;;;;;;4.15;69.59;101880.23;110686;1260;23658;-86
2023/02/15 10:10:28;;;;;;;54.00;48.40;;;;;;;4.23;69.21;101875.87;110824;1260;22714;-80
2023/02/15 10:13:11;;;;;;;64.70;55.50;;;;;;;4.24;68.81;101874.32;110515;1260;22002;-80
2023/02/15 10:16:52;;;;;;;55.50;49.90;;;;;;;4.22;68.74;101866.02;111315;1254;21985;-79
2023/02/15 10:20:11;;;;;;;54.40;48.50;;;;;;;4.23;68.62;101862.92;109533;1273;22191;-80
2023/02/15 10:23:19;;;;;;;50.60;45.80;;;;;;;4.18;68.41;101861.49;108960;1278;22110;-83
2023/02/15 10:26:13;;;;;;;53.50;48.00;;;;;;;4.18;68.40;101856.14;109243;1278;22079;-81
2023/02/15 10:28:53;;;;;;;53.10;47.90;;;;;;;4.19;68.35;101853.91;109177;1278;23046;-82
2023/02/15 10:31:33;;;;;;;54.30;48.90;;;;;;;4.21;68.32;101850.84;109245;1278;22942;-82
2023/02/15 10:34:46;;;;;;;55.00;49.50;;;;;;;4.34;68.76;101849.10;109084;1278;23678;-81
2023/02/15 10:37:17;;;;;;;57.00;51.20;;;;;;;4.56;68.18;101846.77;109002;1278;23059;-81
2023/02/15 10:39:49;;;;;;;62.30;55.50;;;;;;;4.64;67.77;101840.48;109273;1276;22472;-83
2023/02/15 10:42:55;;;;;;;60.40;54.60;;;;;;;4.64;67.64;101831.86;109293;1275;21987;-83
2023/02/15 10:46:32;;;;;;;64.20;57.70;;;;;;;4.70;67.60;101828.29;108490;1287;22017;-83
2023/02/15 10:49:20;;;;;;;85.80;76.60;;;;;;;4.71;67.32;101821.92;107941;1292;22033;-82
2023/02/15 10:52:22;;;;;;;55.90;50.10;;;;;;;4.83;66.95;101819.63;108084;1289;544028;-84
2023/02/15 10:55:42;;;;;;;53.50;48.00;;;;;;;4.80;66.86;101819.95;110494;1268;23035;-85
2023/02/15 10:58:25;;;;;;;47.80;42.90;;;;;;;4.87;66.67;101820.35;109284;1273;22161;-83
2023/02/15 11:01:01;;;;;;;50.00;44.80;;;;;;;4.94;66.60;101815.94;109514;1276;23736;-83
2023/02/15 11:04:19;;;;;;;52.50;47.60;;;;;;;5.07;66.54;101815.69;109295;1276;22181;-82
2023/02/15 11:06:57;;;;;;;57.60;52.10;;;;;;;5.12;66.33;101811.77;107795;1280;1858188;-82
2023/02/15 11:09:39;;;;;;;63.40;57.00;;;;;;;5.19;66.32;101806.81;108680;1281;22752;-83
2023/02/15 11:12:17;;;;;;;53.80;48.50;;;;;;;5.26;65.94;101803.77;108857;1281;23102;-82
2023/02/15 11:15:21;;;;;;;55.00;49.30;;;;;;;5.25;65.66;101804.10;108947;1281;22006;-82
2023/02/15 11:18:05;;;;;;;59.40;53.30;;;;;;;5.28;65.66;101803.44;109422;1274;22000;-83
2023/02/15 11:20:44;;;;;;;51.00;46.10;;;;;;;5.31;65.60;101801.03;109608;1274;23109;-83
2023/02/15 11:23:16;;;;;;;50.70;45.70;;;;;;;5.29;65.19;101796.53;109081;1278;21991;-84
2023/02/15 11:25:56;;;;;;;49.80;45.10;;;;;;;5.19;64.84;101791.29;109119;1279;22781;-82
2023/02/15 11:28:34;;;;;;;49.80;45.00;;;;;;;5.08;64.76;101789.14;109020;1278;22014;-80
2023/02/15 11:31:24;;;;;;;52.40;47.40;;;;;;;4.93;64.72;101787.80;108956;1278;22054;-85
2023/02/15 11:34:51;;;;;;;49.90;45.00;;;;;;;4.68;64.71;101781.20;108979;1273;21988;-80
2023/02/15 11:37:32;;;;;;;51.00;45.90;;;;;;;4.54;65.26;101775.71;110509;1268;21993;-83
2023/02/15 11:40:12;;;;;;;56.10;50.40;;;;;;;4.48;65.48;101769.45;110639;1266;21949;-82
2023/02/15 11:42:42;;;;;;;53.50;48.20;;;;;;;4.54;65.83;101764.50;110759;1261;21998;-83
2023/02/15 11:45:28;;;;;;;52.70;47.70;;;;;;;4.71;66.40;101759.48;111421;1255;21959;-82
2023/02/15 11:47:59;;;;;;;56.70;51.30;;;;;;;4.84;66.06;101753.05;111454;1254;22114;-81
2023/02/15 11:50:32;;;;;;;54.30;49.00;;;;;;;4.88;66.04;101752.40;111343;1255;21975;-82
2023/02/15 11:53:09;;;;;;;57.90;51.80;;;;;;;4.95;65.75;101751.92;111309;1255;21970;-82
2023/02/15 11:55:38;;;;;;;51.30;46.20;;;;;;;4.98;65.60;101750.91;111374;1255;21980;-86
2023/02/15 11:58:38;;;;;;;88.10;78.60;;;;;;;4.91;65.16;101745.17;111430;1255;23676;-82
2023/02/15 12:01:23;;;;;;;65.70;58.80;;;;;;;4.88;65.35;101738.77;111575;1254;21970;-84